Flight Track Log - Related Links

Times and Time Zones

All times are in EDT time to prevent confusion due to time zone crossing. See the QXE2348 flight status page for this flight to view local times or setup timezone preferences in your user account.

Time Position Orientation Groundspeed Altitude Reporting Facility
EDT Latitude Longitude Course Direction KTS MPH feet Rate Location/Type
Thu 01:40:00 PM 47.4258 -121.5592 95° East  Level Estimated
Thu 01:41:00 PM 47.4226 -121.4337 92° East  Level FlightAware Approximate
Thu 01:42:00 PM 47.4179 -121.3083 90° East  Level Estimated
Thu 01:43:00 PM 47.4131 -121.1830 90° East  Level Estimated
Thu 01:44:00 PM 47.4082 -121.0577 95° East  Level Estimated
Thu 01:45:00 PM 47.4053 -120.9323 92° East  Level FlightAware Approximate
Thu 01:46:00 PM 47.4001 -120.8070 92° East  Level Estimated
Thu 01:47:00 PM 47.3978 -120.6816 92° East  Level FlightAware Approximate
Thu 01:48:00 PM 47.3953 -120.5562 92° East  Level FlightAware Approximate
Thu 01:49:00 PM 47.3827 -120.4324 98° East  Level FlightAware Approximate
Thu 01:50:00 PM 47.3700 -120.3086 99° East  Level FlightAware Approximate
Thu 01:51:00 PM 47.3572 -120.1849 99° East  Level FlightAware Approximate
Thu 01:52:00 PM 47.3514 -120.0601 94° East  Level Estimated
Thu 01:53:00 PM 47.3455 -119.9353 94° East  Level FlightAware Approximate
Thu 01:54:00 PM 47.3395 -119.8105 94° East  Level FlightAware Approximate
Thu 01:55:00 PM 47.3333 -119.6858 94° East  Level FlightAware Approximate
Thu 01:56:00 PM 47.3270 -119.5611 94° East  Level FlightAware Approximate
Thu 01:57:00 PM 47.3206 -119.4364 94° East  Level FlightAware Approximate
Thu 01:58:00 PM 47.3140 -119.3117 94° East  Level FlightAware Approximate
Thu 01:59:00 PM 47.3073 -119.1871 94° East  Level FlightAware Approximate
Thu 02:00:00 PM 47.3005 -119.0625 95° East  Level FlightAware Approximate
Thu 02:01:00 PM 47.2935 -118.9380 95° East  Level FlightAware Approximate
Thu 02:02:00 PM 47.2870 -118.8235 95° East  Level FlightAware Approximate
Thu 02:03:00 PM 47.2803 -118.7091 95° East  Level FlightAware Approximate
Thu 02:04:00 PM 47.2736 -118.5947 95° East  Level FlightAware Approximate
Thu 02:05:00 PM 47.2663 -118.4739 95° East  Level FlightAware Approximate
Thu 02:06:00 PM 47.2589 -118.3531 95° East  Level FlightAware Approximate
Thu 02:07:00 PM 47.2514 -118.2324 95° East  Level FlightAware Approximate
Thu 02:08:00 PM 47.2438 -118.1117 95° East  Level FlightAware Approximate
Thu 02:09:00 PM 47.2360 -117.9910 95° East  Level FlightAware Approximate
Thu 02:10:00 PM 47.2287 -117.8703 95° East  Level FlightAware Approximate
Thu 02:11:00 PM 47.2216 -117.7496 95° East  Level FlightAware Approximate
Thu 02:12:00 PM 47.2144 -117.6289 95° East  Level FlightAware Approximate
Thu 02:13:00 PM 47.2070 -117.5082 95° East  Level FlightAware Approximate
Thu 02:14:00 PM 47.1995 -117.3876 95° East  Level FlightAware Approximate
Thu 02:15:00 PM 47.1919 -117.2670 95° East  Level FlightAware Approximate
Thu 02:16:00 PM 47.1842 -117.1465 95° East  Level FlightAware Approximate
Thu 02:17:00 PM 47.1738 -117.0264 97° East  Level FlightAware Approximate
Thu 02:18:00 PM 47.1630 -116.9064 97° East  Level FlightAware Approximate
Thu 02:19:00 PM 47.1521 -116.7864 98° East  Level FlightAware Approximate
Thu 02:20:00 PM 47.1411 -116.6665 98° East  Level FlightAware Approximate
Thu 02:21:00 PM 47.1301 -116.5466 97° East  Level FlightAware Approximate
Thu 02:22:00 PM 47.1194 -116.4267 97° East  Level FlightAware Approximate
Thu 02:23:00 PM 47.1085 -116.3068 98° East  Level FlightAware Approximate
Thu 02:24:00 PM 47.0976 -116.1870 98° East  Level FlightAware Approximate
Thu 02:25:00 PM 47.0865 -116.0672 98° East  Level FlightAware Approximate
Thu 02:26:00 PM 47.0831 -115.9467 95° East  Level FlightAware Approximate
Thu 02:27:00 PM 47.0752 -115.8264 96° East  Level FlightAware Approximate
Thu 02:28:00 PM 47.0671 -115.7062 96° East  Level FlightAware Approximate
Thu 02:29:00 PM 47.0551 -115.5867 98° East  Level FlightAware Approximate
Thu 02:30:00 PM 47.0398 -115.4666 101° East  Level FlightAware Approximate
Thu 02:31:00 PM 47.0275 -115.3456 97° East  Level FlightAware Approximate
Thu 02:32:00 PM 47.0173 -115.2243 97° East  Level FlightAware Approximate
Thu 02:33:00 PM 47.0041 -115.1037 99° East  Level FlightAware Approximate
Thu 02:34:00 PM 46.9978 -114.9825 100° East  Level FlightAware Approximate
Thu 02:35:00 PM 46.9833 -114.8623 90° East  Level FlightAware Approximate
Thu 02:36:00 PM 46.9755 -114.7412 99° East  Level FlightAware Approximate
Thu 02:37:00 PM 46.9628 -114.6206 99° East  Level FlightAware Approximate
Thu 02:38:00 PM 46.9500 -114.5001 99° East  Level FlightAware Approximate
Thu 02:39:00 PM 46.9390 -114.3792 98° East  Level FlightAware Approximate
Thu 02:40:00 PM 46.9333 -114.2579 90° East  Level FlightAware Approximate
Thu 02:41:00 PM 46.9174 -114.1384 102° East  Level FlightAware Approximate
Thu 02:42:00 PM 46.9163 -114.0906 116° Southeast  Level Estimated
Thu 02:43:00 PM 46.9163 -114.0906 116° Southeast  Level Estimated
Thu 02:44:00 PM 46.9163 -114.0906 116° Southeast  Level Estimated
Thu 02:45:00 PM 46.9163 -114.0906 116° Southeast  Level Estimated
Thu 02:46:00 PM 46.9163 -114.0906 341° North  Level Estimated
Thu 02:47:00 PM 46.9163 -114.0906 341° North  Level Estimated
Thu 02:48:00 PM 46.9163 -114.0906 341° North  Level Estimated
Thu 02:49:00 PM 46.9163 -114.0906 341° North  Level Estimated
Thu 02:50:00 PM 46.9163 -114.0906 341° North  Level Estimated
Thu 02:51:00 PM 46.9163 -114.0906 341° North  Level Estimated

Login

Don't have an account? Register now (free) for customized features, flight alerts, and more!